createdAt,value
2023-04-02T08:31:17.216Z,96791.53
2023-04-02T08:36:20.120Z,96798.13
2023-04-02T08:41:27.626Z,96803.00
2023-04-02T08:46:41.320Z,96813.66
2023-04-02T08:51:45.051Z,96806.81
2023-04-02T08:56:55.566Z,96811.75
2023-04-02T09:02:21.681Z,96822.13
2023-04-02T09:07:23.904Z,96823.25
2023-04-02T09:12:29.531Z,96834.44
2023-04-02T09:17:42.798Z,96829.25
2023-04-02T09:22:51.303Z,96836.38
2023-04-02T09:27:55.656Z,96850.06
2023-04-02T09:33:07.816Z,96858.78
2023-04-02T09:38:09.847Z,96861.25
2023-04-02T09:43:18.031Z,96866.44
2023-04-02T09:48:33.864Z,96867.53
2023-04-02T09:53:42.533Z,96871.41
2023-04-02T09:58:46.104Z,96875.22
2023-04-02T10:03:47.901Z,96872.53
2023-04-02T10:08:49.681Z,96885.38
2023-04-02T10:14:04.584Z,96898.25
2023-04-02T10:19:25.160Z,96899.34
2023-04-02T10:24:28.710Z,96903.72
2023-04-02T10:29:33.397Z,96903.72
2023-04-02T10:34:42.812Z,96905.88
2023-04-02T10:39:53.451Z,96898.25
2023-04-02T10:45:01.205Z,96905.91
2023-04-02T10:50:15.154Z,96912.47
2023-04-02T10:55:21.235Z,96919.59
2023-04-02T11:00:31.057Z,96922.88
2023-04-02T11:05:40.241Z,96926.75
2023-04-02T11:10:46.868Z,96928.13
2023-04-02T11:15:48.898Z,96935.81
2023-04-02T11:20:51.095Z,96934.69
2023-04-02T11:26:27.830Z,96930.59
2023-04-02T11:31:29.641Z,96932.81
2023-04-02T11:36:50.853Z,96934.97
2023-04-02T11:42:05.034Z,96939.38
2023-04-02T11:47:24.166Z,96943.19
2023-04-02T11:52:34.042Z,96944.84
2023-04-02T11:58:07.422Z,96950.31
2023-04-02T12:03:25.626Z,96945.94
2023-04-02T12:08:56.994Z,96944.00
2023-04-02T12:14:00.150Z,96954.16
2023-04-02T12:19:03.551Z,96957.97
2023-04-02T12:24:06.346Z,96996.84
2023-04-02T12:29:23.785Z,96998.91
2023-04-02T12:34:30.136Z,97002.03
2023-04-02T12:39:34.548Z,96997.63
2023-04-02T12:44:36.328Z,97005.84
2023-04-02T12:49:41.339Z,97014.59
2023-04-02T12:54:49.683Z,97020.63
2023-04-02T12:59:52.605Z,97026.34
2023-04-02T13:04:57.017Z,97021.97
2023-04-02T13:10:00.868Z,97026.19
2023-04-02T13:15:06.399Z,97028.94
2023-04-02T13:20:27.899Z,97027.88
2023-04-02T13:25:34.584Z,97033.41
2023-04-02T13:30:37.094Z,97031.22
2023-04-02T13:35:38.991Z,97039.47
2023-04-02T13:40:41.233Z,97046.00
2023-04-02T13:45:44.123Z,97051.19
2023-04-02T13:50:46.604Z,97054.69
2023-04-02T13:55:49.205Z,97057.94
2023-04-02T14:00:51.185Z,97065.88
2023-04-02T14:05:58.996Z,97073.50
2023-04-02T14:11:19.436Z,97085.22
2023-04-02T14:16:44.044Z,97093.47
2023-04-02T14:21:57.317Z,97105.44
2023-04-02T14:27:32.789Z,97100.22
2023-04-02T14:32:53.398Z,97097.81
2023-04-02T14:38:23.923Z,97099.50
2023-04-02T14:43:31.372Z,97102.50
2023-04-02T14:48:48.769Z,97117.53
2023-04-02T14:54:22.694Z,97119.66
2023-04-02T14:59:32.578Z,97125.66
2023-04-02T15:04:43.203Z,97132.97
2023-04-02T15:09:52.063Z,97138.88
2023-04-02T15:15:02.288Z,97157.16
2023-04-02T15:20:16.443Z,97160.34
2023-04-02T15:25:21.027Z,97174.50
2023-04-02T15:30:29.451Z,97177.41
2023-04-02T15:35:45.507Z,97173.81
2023-04-02T15:41:15.341Z,97177.13
2023-04-02T15:46:29.284Z,97184.28
2023-04-02T15:51:37.097Z,97196.25
2023-04-02T15:57:08.926Z,97207.69
2023-04-02T16:02:32.738Z,97216.91
2023-04-02T16:08:11.340Z,97234.16
2023-04-02T16:13:35.829Z,97250.97
2023-04-02T16:19:15.681Z,97255.72
2023-04-02T16:24:18.585Z,97265.44
2023-04-02T16:29:47.025Z,97271.91
2023-04-02T16:35:41.835Z,97285.47
2023-04-02T16:41:07.719Z,97294.09
2023-04-02T16:46:40.547Z,97301.69
2023-04-02T16:52:02.378Z,97315.75
2023-04-02T16:57:23.188Z,97322.88
2023-04-02T17:02:46.395Z,97316.59
2023-04-02T17:08:01.506Z,97319.22
2023-04-02T17:13:19.592Z,97326.16
2023-04-02T17:18:24.751Z,97340.38
2023-04-02T17:23:28.239Z,97354.25
2023-04-02T17:28:36.966Z,97363.50
2023-04-02T17:33:39.023Z,97371.59
2023-04-02T17:38:59.804Z,97380.16
2023-04-02T17:44:07.708Z,97397.66
2023-04-02T17:49:25.310Z,97405.66
2023-04-02T17:54:46.732Z,97413.13
2023-04-02T18:00:16.167Z,97429.28
2023-04-02T18:05:30.808Z,97440.00
2023-04-02T18:11:00.219Z,97451.59
2023-04-02T18:16:20.388Z,97468.78
2023-04-02T18:21:43.423Z,97478.03
2023-04-02T18:27:09.533Z,97487.28
2023-04-02T18:32:26.118Z,97497.69
2023-04-02T18:37:30.812Z,97513.78
2023-04-02T18:42:51.561Z,97527.63
2023-04-02T18:48:12.252Z,97539.91
2023-04-02T18:53:17.264Z,97543.88
2023-04-02T18:58:52.824Z,97569.06
2023-04-02T19:04:03.852Z,97574.56
2023-04-02T19:09:34.194Z,97570.06
2023-04-02T19:14:35.985Z,97584.81
2023-04-02T19:19:42.861Z,97602.94
2023-04-02T19:25:07.807Z,97620.56
2023-04-02T19:30:26.617Z,97626.22
2023-04-02T19:35:35.834Z,97629.78
2023-04-02T19:41:03.931Z,97643.03
2023-04-02T19:46:06.144Z,97655.88
2023-04-02T19:51:07.813Z,97658.84
2023-04-02T19:56:09.561Z,97663.72
2023-04-02T20:01:11.401Z,97664.91
2023-04-02T20:06:13.163Z,97675.00
2023-04-02T20:11:15.568Z,97671.66
2023-04-02T20:16:17.551Z,97679.72
2023-04-02T20:21:19.933Z,97689.34
2023-04-02T20:26:22.543Z,97698.06
2023-04-02T20:31:24.645Z,97700.16
2023-04-02T20:36:26.478Z,97712.34
2023-04-02T20:41:28.229Z,97705.28
2023-04-02T20:46:30.219Z,97708.56
2023-04-02T20:51:32.645Z,97718.19
2023-04-02T20:56:34.640Z,97727.31
2023-04-02T21:01:37.596Z,97734.78
2023-04-02T21:06:40.849Z,97748.41
2023-04-02T21:11:43.607Z,97754.91
2023-04-02T21:16:45.363Z,97752.34
2023-04-02T21:21:47.058Z,97742.72
2023-04-02T21:26:49.956Z,97751.13
2023-04-02T21:31:52.392Z,97755.34
2023-04-02T21:36:54.279Z,97754.13
2023-04-02T21:41:56.386Z,97760.88
2023-04-02T21:46:58.152Z,97758.75
2023-04-02T21:51:59.957Z,97757.50
2023-04-02T21:57:01.655Z,97756.63
2023-04-02T22:02:04.724Z,97764.97
2023-04-02T22:07:06.488Z,97770.56
2023-04-02T22:12:08.367Z,97765.78
2023-04-02T22:17:10.061Z,97784.56
2023-04-02T22:22:11.785Z,97782.88
2023-04-02T22:27:13.501Z,97796.06
2023-04-02T22:32:15.368Z,97799.97
2023-04-02T22:37:17.353Z,97799.31
2023-04-02T22:42:19.033Z,97799.38
2023-04-02T22:47:20.982Z,97804.81
2023-04-02T22:52:22.928Z,97793.75
2023-04-02T22:57:24.621Z,97797.88
2023-04-02T23:02:27.507Z,97803.31
2023-04-02T23:07:29.212Z,97800.50
2023-04-02T23:12:31.066Z,97813.00
2023-04-02T23:17:32.829Z,97799.22
2023-04-02T23:22:34.741Z,97806.25
2023-04-02T23:27:36.864Z,97801.69
2023-04-02T23:32:38.633Z,97800.19
2023-04-02T23:37:41.991Z,97799.94
2023-04-02T23:42:44.002Z,97804.97
2023-04-02T23:47:45.701Z,97803.31
2023-04-02T23:52:47.573Z,97800.28
2023-04-02T23:57:49.218Z,97795.88
